sensor_id;sensor_type;location;lat;lon;timestamp;P1;durP1;ratioP1;P2;durP2;ratioP2
77495;SDS011;66600;48.378;9.948;2023-06-14T00:02:00;5.55;;;3.30;;
77495;SDS011;66600;48.378;9.948;2023-06-14T00:04:26;6.75;;;3.55;;
77495;SDS011;66600;48.378;9.948;2023-06-14T00:06:51;6.68;;;3.97;;
77495;SDS011;66600;48.378;9.948;2023-06-14T00:09:17;6.28;;;3.40;;
77495;SDS011;66600;48.378;9.948;2023-06-14T00:11:43;5.07;;;3.60;;
77495;SDS011;66600;48.378;9.948;2023-06-14T00:14:09;5.10;;;3.65;;
77495;SDS011;66600;48.378;9.948;2023-06-14T00:16:34;6.03;;;3.53;;
77495;SDS011;66600;48.378;9.948;2023-06-14T00:19:03;5.38;;;3.58;;
77495;SDS011;66600;48.378;9.948;2023-06-14T00:21:29;5.70;;;3.72;;
77495;SDS011;66600;48.378;9.948;2023-06-14T00:23:56;7.68;;;4.03;;
77495;SDS011;66600;48.378;9.948;2023-06-14T00:26:23;6.03;;;3.60;;
77495;SDS011;66600;48.378;9.948;2023-06-14T00:28:48;5.80;;;3.85;;
77495;SDS011;66600;48.378;9.948;2023-06-14T00:31:13;5.68;;;3.60;;
77495;SDS011;66600;48.378;9.948;2023-06-14T00:33:39;8.68;;;3.92;;
77495;SDS011;66600;48.378;9.948;2023-06-14T00:36:04;6.07;;;4.00;;
77495;SDS011;66600;48.378;9.948;2023-06-14T00:38:30;7.57;;;3.90;;
77495;SDS011;66600;48.378;9.948;2023-06-14T00:40:55;9.27;;;4.00;;
77495;SDS011;66600;48.378;9.948;2023-06-14T00:43:20;7.18;;;3.95;;
77495;SDS011;66600;48.378;9.948;2023-06-14T00:45:46;6.70;;;3.95;;
77495;SDS011;66600;48.378;9.948;2023-06-14T00:48:11;6.45;;;4.05;;
77495;SDS011;66600;48.378;9.948;2023-06-14T00:50:38;6.70;;;3.88;;
77495;SDS011;66600;48.378;9.948;2023-06-14T00:53:05;6.90;;;3.90;;
77495;SDS011;66600;48.378;9.948;2023-06-14T00:55:31;6.57;;;4.00;;
77495;SDS011;66600;48.378;9.948;2023-06-14T00:57:57;5.22;;;3.80;;
77495;SDS011;66600;48.378;9.948;2023-06-14T01:00:23;6.03;;;4.40;;
77495;SDS011;66600;48.378;9.948;2023-06-14T01:02:49;8.25;;;4.05;;
77495;SDS011;66600;48.378;9.948;2023-06-14T01:05:17;5.80;;;3.85;;
77495;SDS011;66600;48.378;9.948;2023-06-14T01:07:46;5.65;;;3.90;;
77495;SDS011;66600;48.378;9.948;2023-06-14T01:15:47;5.80;;;3.90;;
77495;SDS011;66600;48.378;9.948;2023-06-14T01:18:13;5.68;;;4.00;;
77495;SDS011;66600;48.378;9.948;2023-06-14T01:20:45;7.20;;;3.92;;
77495;SDS011;66600;48.378;9.948;2023-06-14T01:23:15;5.88;;;3.97;;
77495;SDS011;66600;48.378;9.948;2023-06-14T01:25:41;6.20;;;3.85;;
77495;SDS011;66600;48.378;9.948;2023-06-14T01:28:10;6.97;;;4.20;;
77495;SDS011;66600;48.378;9.948;2023-06-14T01:30:37;5.90;;;3.93;;
77495;SDS011;66600;48.378;9.948;2023-06-14T01:33:11;4.88;;;3.78;;
77495;SDS011;66600;48.378;9.948;2023-06-14T01:35:38;5.53;;;3.63;;
77495;SDS011;66600;48.378;9.948;2023-06-14T01:38:04;5.88;;;4.13;;
77495;SDS011;66600;48.378;9.948;2023-06-14T01:40:31;5.65;;;3.75;;
77495;SDS011;66600;48.378;9.948;2023-06-14T01:42:57;8.02;;;4.10;;
77495;SDS011;66600;48.378;9.948;2023-06-14T01:45:23;6.30;;;4.40;;
77495;SDS011;66600;48.378;9.948;2023-06-14T01:47:50;6.90;;;4.03;;
77495;SDS011;66600;48.378;9.948;2023-06-14T01:50:15;7.80;;;4.25;;
77495;SDS011;66600;48.378;9.948;2023-06-14T01:52:40;5.65;;;3.92;;
77495;SDS011;66600;48.378;9.948;2023-06-14T01:55:06;7.65;;;4.00;;
77495;SDS011;66600;48.378;9.948;2023-06-14T01:57:33;7.80;;;4.70;;
77495;SDS011;66600;48.378;9.948;2023-06-14T01:59:58;6.15;;;4.05;;
77495;SDS011;66600;48.378;9.948;2023-06-14T02:02:23;7.03;;;3.72;;
77495;SDS011;66600;48.378;9.948;2023-06-14T02:04:49;6.80;;;4.07;;
77495;SDS011;66600;48.378;9.948;2023-06-14T02:07:14;8.00;;;4.13;;
77495;SDS011;66600;48.378;9.948;2023-06-14T02:09:40;5.95;;;3.83;;
77495;SDS011;66600;48.378;9.948;2023-06-14T02:12:09;5.63;;;3.90;;
77495;SDS011;66600;48.378;9.948;2023-06-14T02:14:35;7.70;;;4.05;;
77495;SDS011;66600;48.378;9.948;2023-06-14T02:17:01;6.68;;;4.05;;
77495;SDS011;66600;48.378;9.948;2023-06-14T02:19:29;8.97;;;3.90;;
77495;SDS011;66600;48.378;9.948;2023-06-14T02:21:56;6.18;;;4.00;;
77495;SDS011;66600;48.378;9.948;2023-06-14T02:24:21;5.70;;;3.78;;
77495;SDS011;66600;48.378;9.948;2023-06-14T02:26:48;6.25;;;3.97;;
77495;SDS011;66600;48.378;9.948;2023-06-14T02:29:14;6.18;;;3.92;;
77495;SDS011;66600;48.378;9.948;2023-06-14T02:31:41;5.72;;;4.00;;
77495;SDS011;66600;48.378;9.948;2023-06-14T02:34:06;6.93;;;4.18;;
77495;SDS011;66600;48.378;9.948;2023-06-14T02:36:33;6.93;;;3.80;;
77495;SDS011;66600;48.378;9.948;2023-06-14T02:38:59;6.00;;;3.63;;
77495;SDS011;66600;48.378;9.948;2023-06-14T02:41:25;6.05;;;4.15;;
77495;SDS011;66600;48.378;9.948;2023-06-14T02:43:51;5.18;;;3.83;;
77495;SDS011;66600;48.378;9.948;2023-06-14T02:46:16;5.82;;;3.90;;
77495;SDS011;66600;48.378;9.948;2023-06-14T02:48:42;6.38;;;4.13;;
77495;SDS011;66600;48.378;9.948;2023-06-14T02:51:07;5.25;;;3.65;;
77495;SDS011;66600;48.378;9.948;2023-06-14T02:53:34;6.82;;;3.83;;
77495;SDS011;66600;48.378;9.948;2023-06-14T02:56:00;5.53;;;3.85;;
77495;SDS011;66600;48.378;9.948;2023-06-14T02:58:26;6.22;;;4.07;;
77495;SDS011;66600;48.378;9.948;2023-06-14T03:00:51;7.55;;;4.20;;
77495;SDS011;66600;48.378;9.948;2023-06-14T03:03:20;5.47;;;3.80;;
77495;SDS011;66600;48.378;9.948;2023-06-14T03:05:47;5.60;;;4.10;;
77495;SDS011;66600;48.378;9.948;2023-06-14T03:08:14;7.43;;;3.70;;
77495;SDS011;66600;48.378;9.948;2023-06-14T03:10:51;8.55;;;4.60;;
77495;SDS011;66600;48.378;9.948;2023-06-14T03:13:16;6.60;;;3.97;;
77495;SDS011;66600;48.378;9.948;2023-06-14T03:15:42;6.13;;;3.65;;
77495;SDS011;66600;48.378;9.948;2023-06-14T03:18:09;7.03;;;3.95;;
77495;SDS011;66600;48.378;9.948;2023-06-14T03:20:38;5.80;;;3.92;;
77495;SDS011;66600;48.378;9.948;2023-06-14T03:23:03;6.75;;;3.70;;
77495;SDS011;66600;48.378;9.948;2023-06-14T03:25:30;6.32;;;4.05;;
77495;SDS011;66600;48.378;9.948;2023-06-14T03:27:56;7.30;;;3.83;;
77495;SDS011;66600;48.378;9.948;2023-06-14T03:30:21;5.75;;;3.63;;
77495;SDS011;66600;48.378;9.948;2023-06-14T03:32:47;7.20;;;4.00;;
77495;SDS011;66600;48.378;9.948;2023-06-14T03:35:12;5.75;;;4.00;;
77495;SDS011;66600;48.378;9.948;2023-06-14T03:37:42;6.78;;;3.75;;
77495;SDS011;66600;48.378;9.948;2023-06-14T03:40:09;6.88;;;3.92;;
77495;SDS011;66600;48.378;9.948;2023-06-14T03:42:35;7.30;;;4.20;;
77495;SDS011;66600;48.378;9.948;2023-06-14T03:45:00;7.93;;;3.88;;
77495;SDS011;66600;48.378;9.948;2023-06-14T03:47:26;6.47;;;3.72;;
77495;SDS011;66600;48.378;9.948;2023-06-14T03:49:52;8.35;;;4.18;;
77495;SDS011;66600;48.378;9.948;2023-06-14T03:52:17;7.25;;;3.97;;
77495;SDS011;66600;48.378;9.948;2023-06-14T03:54:42;6.45;;;4.32;;
77495;SDS011;66600;48.378;9.948;2023-06-14T03:57:09;5.93;;;3.80;;
77495;SDS011;66600;48.378;9.948;2023-06-14T03:59:35;6.53;;;3.95;;
77495;SDS011;66600;48.378;9.948;2023-06-14T04:02:01;5.82;;;3.83;;
77495;SDS011;66600;48.378;9.948;2023-06-14T04:04:27;7.70;;;4.20;;
77495;SDS011;66600;48.378;9.948;2023-06-14T04:06:55;8.45;;;4.22;;
77495;SDS011;66600;48.378;9.948;2023-06-14T04:09:21;6.65;;;4.40;;
77495;SDS011;66600;48.378;9.948;2023-06-14T04:11:47;7.20;;;4.45;;
77495;SDS011;66600;48.378;9.948;2023-06-14T04:14:13;7.15;;;4.00;;
77495;SDS011;66600;48.378;9.948;2023-06-14T04:16:38;8.30;;;4.32;;
77495;SDS011;66600;48.378;9.948;2023-06-14T04:19:03;6.00;;;4.22;;
77495;SDS011;66600;48.378;9.948;2023-06-14T04:21:29;6.90;;;3.95;;
77495;SDS011;66600;48.378;9.948;2023-06-14T04:23:54;6.25;;;3.88;;
77495;SDS011;66600;48.378;9.948;2023-06-14T04:26:21;8.88;;;4.20;;
77495;SDS011;66600;48.378;9.948;2023-06-14T04:28:48;7.38;;;4.47;;
77495;SDS011;66600;48.378;9.948;2023-06-14T04:31:14;6.25;;;3.90;;
77495;SDS011;66600;48.378;9.948;2023-06-14T04:33:41;6.15;;;3.78;;
77495;SDS011;66600;48.378;9.948;2023-06-14T04:36:11;6.78;;;3.80;;
77495;SDS011;66600;48.378;9.948;2023-06-14T04:38:38;4.75;;;3.72;;
77495;SDS011;66600;48.378;9.948;2023-06-14T04:41:04;6.75;;;4.22;;
77495;SDS011;66600;48.378;9.948;2023-06-14T04:43:30;5.95;;;3.85;;
77495;SDS011;66600;48.378;9.948;2023-06-14T04:45:56;7.32;;;4.10;;
77495;SDS011;66600;48.378;9.948;2023-06-14T04:48:22;5.65;;;3.90;;
77495;SDS011;66600;48.378;9.948;2023-06-14T04:50:48;6.78;;;3.85;;
77495;SDS011;66600;48.378;9.948;2023-06-14T04:53:17;6.18;;;3.80;;
77495;SDS011;66600;48.378;9.948;2023-06-14T04:55:46;6.25;;;4.25;;
77495;SDS011;66600;48.378;9.948;2023-06-14T04:58:11;7.10;;;4.22;;
77495;SDS011;66600;48.378;9.948;2023-06-14T05:00:37;8.18;;;3.90;;
77495;SDS011;66600;48.378;9.948;2023-06-14T05:03:03;5.90;;;4.25;;
77495;SDS011;66600;48.378;9.948;2023-06-14T05:05:30;8.00;;;4.30;;
77495;SDS011;66600;48.378;9.948;2023-06-14T05:07:57;6.75;;;4.18;;
77495;SDS011;66600;48.378;9.948;2023-06-14T05:10:22;9.55;;;4.05;;
77495;SDS011;66600;48.378;9.948;2023-06-14T05:12:48;9.85;;;4.35;;
77495;SDS011;66600;48.378;9.948;2023-06-14T05:15:14;6.25;;;4.20;;
77495;SDS011;66600;48.378;9.948;2023-06-14T05:17:39;9.23;;;4.70;;
77495;SDS011;66600;48.378;9.948;2023-06-14T05:20:06;6.63;;;4.07;;
77495;SDS011;66600;48.378;9.948;2023-06-14T05:22:32;10.15;;;4.90;;
77495;SDS011;66600;48.378;9.948;2023-06-14T05:24:57;8.00;;;4.47;;
77495;SDS011;66600;48.378;9.948;2023-06-14T05:27:22;9.27;;;4.35;;
77495;SDS011;66600;48.378;9.948;2023-06-14T05:29:49;8.07;;;5.13;;
77495;SDS011;66600;48.378;9.948;2023-06-14T05:32:15;11.70;;;5.10;;
77495;SDS011;66600;48.378;9.948;2023-06-14T05:34:40;7.18;;;4.65;;
77495;SDS011;66600;48.378;9.948;2023-06-14T05:37:06;9.20;;;4.70;;
77495;SDS011;66600;48.378;9.948;2023-06-14T05:39:32;7.72;;;4.13;;
77495;SDS011;66600;48.378;9.948;2023-06-14T05:41:57;8.45;;;4.80;;
77495;SDS011;66600;48.378;9.948;2023-06-14T05:44:23;10.07;;;4.75;;
77495;SDS011;66600;48.378;9.948;2023-06-14T05:46:48;7.60;;;4.00;;
77495;SDS011;66600;48.378;9.948;2023-06-14T05:49:14;8.88;;;4.50;;
77495;SDS011;66600;48.378;9.948;2023-06-14T05:51:39;8.00;;;4.28;;
77495;SDS011;66600;48.378;9.948;2023-06-14T05:54:04;7.30;;;4.60;;
77495;SDS011;66600;48.378;9.948;2023-06-14T05:56:30;8.25;;;4.78;;
77495;SDS011;66600;48.378;9.948;2023-06-14T05:58:55;5.53;;;4.13;;
77495;SDS011;66600;48.378;9.948;2023-06-14T06:01:21;6.97;;;4.10;;
77495;SDS011;66600;48.378;9.948;2023-06-14T06:03:46;7.05;;;4.40;;
77495;SDS011;66600;48.378;9.948;2023-06-14T06:06:12;7.43;;;4.40;;
77495;SDS011;66600;48.378;9.948;2023-06-14T06:08:38;8.02;;;4.05;;
77495;SDS011;66600;48.378;9.948;2023-06-14T06:11:03;5.90;;;3.83;;
77495;SDS011;66600;48.378;9.948;2023-06-14T06:13:29;6.93;;;4.25;;
77495;SDS011;66600;48.378;9.948;2023-06-14T06:15:54;7.47;;;4.30;;
77495;SDS011;66600;48.378;9.948;2023-06-14T06:18:21;7.65;;;4.25;;
77495;SDS011;66600;48.378;9.948;2023-06-14T06:20:46;6.10;;;4.20;;
77495;SDS011;66600;48.378;9.948;2023-06-14T06:23:12;7.43;;;3.88;;
77495;SDS011;66600;48.378;9.948;2023-06-14T06:25:37;6.78;;;3.88;;
77495;SDS011;66600;48.378;9.948;2023-06-14T06:28:03;5.47;;;3.95;;
77495;SDS011;66600;48.378;9.948;2023-06-14T06:30:28;7.55;;;3.92;;
77495;SDS011;66600;48.378;9.948;2023-06-14T06:32:53;7.65;;;4.35;;
77495;SDS011;66600;48.378;9.948;2023-06-14T06:35:20;6.53;;;4.03;;
77495;SDS011;66600;48.378;9.948;2023-06-14T06:37:46;6.97;;;4.10;;
77495;SDS011;66600;48.378;9.948;2023-06-14T06:40:11;7.60;;;3.88;;
77495;SDS011;66600;48.378;9.948;2023-06-14T06:42:37;7.55;;;4.55;;
77495;SDS011;66600;48.378;9.948;2023-06-14T06:45:02;5.20;;;3.72;;
77495;SDS011;66600;48.378;9.948;2023-06-14T06:47:28;8.63;;;4.07;;
77495;SDS011;66600;48.378;9.948;2023-06-14T06:49:53;6.50;;;4.05;;
77495;SDS011;66600;48.378;9.948;2023-06-14T06:52:19;6.88;;;3.95;;
77495;SDS011;66600;48.378;9.948;2023-06-14T06:54:44;7.18;;;4.20;;
77495;SDS011;66600;48.378;9.948;2023-06-14T06:57:10;6.10;;;3.72;;
77495;SDS011;66600;48.378;9.948;2023-06-14T06:59:36;8.15;;;4.45;;
77495;SDS011;66600;48.378;9.948;2023-06-14T07:02:01;6.22;;;3.65;;
77495;SDS011;66600;48.378;9.948;2023-06-14T07:04:26;6.63;;;3.80;;
77495;SDS011;66600;48.378;9.948;2023-06-14T07:06:52;6.03;;;4.20;;
77495;SDS011;66600;48.378;9.948;2023-06-14T07:09:17;6.07;;;4.00;;
77495;SDS011;66600;48.378;9.948;2023-06-14T07:11:44;6.38;;;3.78;;
77495;SDS011;66600;48.378;9.948;2023-06-14T07:14:10;6.90;;;4.20;;
77495;SDS011;66600;48.378;9.948;2023-06-14T07:16:35;4.82;;;3.45;;
77495;SDS011;66600;48.378;9.948;2023-06-14T07:19:01;8.90;;;4.47;;
77495;SDS011;66600;48.378;9.948;2023-06-14T07:21:28;7.00;;;4.00;;
77495;SDS011;66600;48.378;9.948;2023-06-14T07:23:53;6.80;;;4.30;;
77495;SDS011;66600;48.378;9.948;2023-06-14T07:26:19;7.28;;;4.30;;
77495;SDS011;66600;48.378;9.948;2023-06-14T07:28:44;8.30;;;3.80;;
77495;SDS011;66600;48.378;9.948;2023-06-14T07:31:10;6.13;;;3.80;;
77495;SDS011;66600;48.378;9.948;2023-06-14T07:33:37;6.63;;;3.88;;
77495;SDS011;66600;48.378;9.948;2023-06-14T07:36:03;5.88;;;4.10;;
77495;SDS011;66600;48.378;9.948;2023-06-14T07:38:28;7.57;;;4.20;;
77495;SDS011;66600;48.378;9.948;2023-06-14T07:40:53;6.28;;;3.88;;
77495;SDS011;66600;48.378;9.948;2023-06-14T07:43:19;5.85;;;4.10;;
77495;SDS011;66600;48.378;9.948;2023-06-14T07:45:44;7.82;;;4.10;;
77495;SDS011;66600;48.378;9.948;2023-06-14T07:48:10;7.47;;;4.20;;
77495;SDS011;66600;48.378;9.948;2023-06-14T07:50:35;5.93;;;4.03;;
77495;SDS011;66600;48.378;9.948;2023-06-14T07:53:01;5.63;;;4.07;;
77495;SDS011;66600;48.378;9.948;2023-06-14T07:55:26;6.47;;;4.30;;
77495;SDS011;66600;48.378;9.948;2023-06-14T07:57:51;6.40;;;4.00;;
77495;SDS011;66600;48.378;9.948;2023-06-14T08:00:17;6.25;;;4.70;;
77495;SDS011;66600;48.378;9.948;2023-06-14T08:02:44;7.22;;;3.70;;
77495;SDS011;66600;48.378;9.948;2023-06-14T08:05:10;6.93;;;4.20;;
77495;SDS011;66600;48.378;9.948;2023-06-14T08:07:36;7.80;;;4.00;;
77495;SDS011;66600;48.378;9.948;2023-06-14T08:10:03;6.57;;;4.38;;
77495;SDS011;66600;48.378;9.948;2023-06-14T08:12:29;6.88;;;3.75;;
77495;SDS011;66600;48.378;9.948;2023-06-14T08:14:55;6.43;;;4.25;;
77495;SDS011;66600;48.378;9.948;2023-06-14T08:17:20;8.48;;;4.30;;
77495;SDS011;66600;48.378;9.948;2023-06-14T08:19:45;9.20;;;4.30;;
77495;SDS011;66600;48.378;9.948;2023-06-14T08:22:10;5.80;;;4.38;;
77495;SDS011;66600;48.378;9.948;2023-06-14T08:24:37;7.25;;;4.10;;
77495;SDS011;66600;48.378;9.948;2023-06-14T08:27:02;6.80;;;4.00;;
77495;SDS011;66600;48.378;9.948;2023-06-14T08:29:28;6.20;;;4.28;;
77495;SDS011;66600;48.378;9.948;2023-06-14T08:31:56;7.03;;;4.27;;
77495;SDS011;66600;48.378;9.948;2023-06-14T08:34:21;5.53;;;4.07;;
77495;SDS011;66600;48.378;9.948;2023-06-14T08:36:48;4.45;;;3.90;;
77495;SDS011;66600;48.378;9.948;2023-06-14T08:39:15;8.45;;;3.83;;
77495;SDS011;66600;48.378;9.948;2023-06-14T08:41:41;6.45;;;3.90;;
77495;SDS011;66600;48.378;9.948;2023-06-14T08:44:08;5.13;;;3.72;;
77495;SDS011;66600;48.378;9.948;2023-06-14T08:46:33;7.82;;;3.95;;
77495;SDS011;66600;48.378;9.948;2023-06-14T08:49:00;6.85;;;4.00;;
77495;SDS011;66600;48.378;9.948;2023-06-14T08:51:26;4.90;;;3.45;;
77495;SDS011;66600;48.378;9.948;2023-06-14T08:53:59;6.80;;;3.20;;
77495;SDS011;66600;48.378;9.948;2023-06-14T08:56:27;5.45;;;3.50;;
77495;SDS011;66600;48.378;9.948;2023-06-14T08:58:54;7.80;;;3.10;;
77495;SDS011;66600;48.378;9.948;2023-06-14T09:01:21;5.18;;;3.03;;
77495;SDS011;66600;48.378;9.948;2023-06-14T09:03:48;4.93;;;3.40;;
77495;SDS011;66600;48.378;9.948;2023-06-14T09:06:14;4.13;;;2.65;;
77495;SDS011;66600;48.378;9.948;2023-06-14T09:08:41;4.80;;;3.10;;
77495;SDS011;66600;48.378;9.948;2023-06-14T09:11:08;4.97;;;3.10;;
77495;SDS011;66600;48.378;9.948;2023-06-14T09:13:37;4.90;;;2.97;;
77495;SDS011;66600;48.378;9.948;2023-06-14T09:16:02;5.03;;;3.10;;
77495;SDS011;66600;48.378;9.948;2023-06-14T09:18:35;6.22;;;3.08;;
77495;SDS011;66600;48.378;9.948;2023-06-14T09:21:10;5.78;;;3.17;;
77495;SDS011;66600;48.378;9.948;2023-06-14T09:23:37;5.78;;;3.50;;
77495;SDS011;66600;48.378;9.948;2023-06-14T09:26:10;6.40;;;3.33;;
77495;SDS011;66600;48.378;9.948;2023-06-14T09:28:44;5.60;;;3.30;;
77495;SDS011;66600;48.378;9.948;2023-06-14T09:31:11;5.68;;;2.85;;
77495;SDS011;66600;48.378;9.948;2023-06-14T09:33:37;3.67;;;2.95;;
77495;SDS011;66600;48.378;9.948;2023-06-14T09:36:03;4.10;;;3.03;;
77495;SDS011;66600;48.378;9.948;2023-06-14T09:38:34;5.47;;;3.05;;
77495;SDS011;66600;48.378;9.948;2023-06-14T09:41:00;6.05;;;3.40;;
77495;SDS011;66600;48.378;9.948;2023-06-14T09:43:28;8.50;;;3.40;;
77495;SDS011;66600;48.378;9.948;2023-06-14T09:45:54;5.25;;;3.00;;
77495;SDS011;66600;48.378;9.948;2023-06-14T09:48:20;6.30;;;3.00;;
77495;SDS011;66600;48.378;9.948;2023-06-14T09:50:45;5.10;;;3.15;;
77495;SDS011;66600;48.378;9.948;2023-06-14T09:53:12;5.63;;;2.90;;
77495;SDS011;66600;48.378;9.948;2023-06-14T09:55:40;4.43;;;2.83;;
77495;SDS011;66600;48.378;9.948;2023-06-14T09:58:06;6.25;;;3.13;;
77495;SDS011;66600;48.378;9.948;2023-06-14T10:00:33;7.72;;;3.20;;
77495;SDS011;66600;48.378;9.948;2023-06-14T10:03:10;5.55;;;3.00;;
77495;SDS011;66600;48.378;9.948;2023-06-14T10:05:38;6.55;;;3.60;;
77495;SDS011;66600;48.378;9.948;2023-06-14T10:08:10;4.50;;;3.00;;
77495;SDS011;66600;48.378;9.948;2023-06-14T10:10:40;5.22;;;3.28;;
77495;SDS011;66600;48.378;9.948;2023-06-14T10:13:07;5.97;;;2.78;;
77495;SDS011;66600;48.378;9.948;2023-06-14T10:15:35;5.57;;;3.10;;
77495;SDS011;66600;48.378;9.948;2023-06-14T10:23:56;5.53;;;3.10;;
77495;SDS011;66600;48.378;9.948;2023-06-14T10:26:25;8.63;;;3.25;;
77495;SDS011;66600;48.378;9.948;2023-06-14T10:28:58;5.97;;;3.20;;
77495;SDS011;66600;48.378;9.948;2023-06-14T10:34:30;4.53;;;2.97;;
77495;SDS011;66600;48.378;9.948;2023-06-14T10:39:32;5.47;;;3.05;;
77495;SDS011;66600;48.378;9.948;2023-06-14T10:42:03;6.68;;;3.08;;
77495;SDS011;66600;48.378;9.948;2023-06-14T10:46:55;4.70;;;2.92;;
77495;SDS011;66600;48.378;9.948;2023-06-14T10:52:17;6.05;;;3.10;;
77495;SDS011;66600;48.378;9.948;2023-06-14T10:57:31;7.32;;;3.30;;
77495;SDS011;66600;48.378;9.948;2023-06-14T11:00:00;5.97;;;3.25;;
77495;SDS011;66600;48.378;9.948;2023-06-14T11:05:27;5.70;;;3.25;;
77495;SDS011;66600;48.378;9.948;2023-06-14T11:10:48;7.03;;;3.75;;
77495;SDS011;66600;48.378;9.948;2023-06-14T11:13:15;5.72;;;3.33;;
77495;SDS011;66600;48.378;9.948;2023-06-14T11:15:45;6.28;;;3.40;;
77495;SDS011;66600;48.378;9.948;2023-06-14T11:18:12;4.38;;;3.30;;
77495;SDS011;66600;48.378;9.948;2023-06-14T11:20:39;4.90;;;3.42;;
77495;SDS011;66600;48.378;9.948;2023-06-14T11:23:05;5.13;;;3.28;;
77495;SDS011;66600;48.378;9.948;2023-06-14T11:25:30;4.55;;;3.38;;
77495;SDS011;66600;48.378;9.948;2023-06-14T11:27:56;6.90;;;3.25;;
77495;SDS011;66600;48.378;9.948;2023-06-14T11:30:22;6.80;;;3.40;;
77495;SDS011;66600;48.378;9.948;2023-06-14T11:32:49;4.40;;;3.03;;
77495;SDS011;66600;48.378;9.948;2023-06-14T11:35:15;5.28;;;3.33;;
77495;SDS011;66600;48.378;9.948;2023-06-14T11:37:42;4.93;;;3.40;;
77495;SDS011;66600;48.378;9.948;2023-06-14T11:40:09;5.10;;;3.20;;
77495;SDS011;66600;48.378;9.948;2023-06-14T11:42:36;5.82;;;3.30;;
77495;SDS011;66600;48.378;9.948;2023-06-14T11:45:03;5.82;;;3.35;;
77495;SDS011;66600;48.378;9.948;2023-06-14T11:47:32;5.68;;;2.90;;
77495;SDS011;66600;48.378;9.948;2023-06-14T11:50:01;4.35;;;3.20;;
77495;SDS011;66600;48.378;9.948;2023-06-14T11:52:27;5.00;;;3.17;;
77495;SDS011;66600;48.378;9.948;2023-06-14T11:54:52;5.43;;;3.20;;
77495;SDS011;66600;48.378;9.948;2023-06-14T11:57:18;7.38;;;3.25;;
77495;SDS011;66600;48.378;9.948;2023-06-14T11:59:44;4.43;;;3.17;;
77495;SDS011;66600;48.378;9.948;2023-06-14T12:02:13;6.97;;;3.10;;
77495;SDS011;66600;48.378;9.948;2023-06-14T12:04:43;7.10;;;3.25;;
77495;SDS011;66600;48.378;9.948;2023-06-14T12:07:12;5.95;;;3.05;;
77495;SDS011;66600;48.378;9.948;2023-06-14T12:12:24;5.80;;;3.38;;
77495;SDS011;66600;48.378;9.948;2023-06-14T12:14:50;4.05;;;3.08;;
77495;SDS011;66600;48.378;9.948;2023-06-14T12:17:17;6.55;;;3.67;;
77495;SDS011;66600;48.378;9.948;2023-06-14T12:19:43;6.45;;;3.00;;
77495;SDS011;66600;48.378;9.948;2023-06-14T12:22:10;4.72;;;3.03;;
77495;SDS011;66600;48.378;9.948;2023-06-14T12:24:36;4.47;;;2.80;;
77495;SDS011;66600;48.378;9.948;2023-06-14T12:27:02;4.93;;;3.35;;
77495;SDS011;66600;48.378;9.948;2023-06-14T12:29:29;5.47;;;3.20;;
77495;SDS011;66600;48.378;9.948;2023-06-14T12:31:54;4.43;;;2.95;;
77495;SDS011;66600;48.378;9.948;2023-06-14T12:34:22;6.20;;;3.53;;
77495;SDS011;66600;48.378;9.948;2023-06-14T12:36:51;5.57;;;3.30;;
77495;SDS011;66600;48.378;9.948;2023-06-14T12:39:18;6.32;;;3.40;;
77495;SDS011;66600;48.378;9.948;2023-06-14T12:41:43;4.43;;;3.28;;
77495;SDS011;66600;48.378;9.948;2023-06-14T12:44:09;5.43;;;3.55;;
77495;SDS011;66600;48.378;9.948;2023-06-14T12:46:36;6.18;;;3.67;;
77495;SDS011;66600;48.378;9.948;2023-06-14T12:49:01;4.60;;;3.00;;
77495;SDS011;66600;48.378;9.948;2023-06-14T12:51:27;4.68;;;3.30;;
77495;SDS011;66600;48.378;9.948;2023-06-14T12:53:52;7.35;;;3.53;;
77495;SDS011;66600;48.378;9.948;2023-06-14T12:56:18;5.63;;;3.50;;
77495;SDS011;66600;48.378;9.948;2023-06-14T12:58:43;4.47;;;3.15;;
77495;SDS011;66600;48.378;9.948;2023-06-14T13:01:09;5.10;;;3.30;;
77495;SDS011;66600;48.378;9.948;2023-06-14T13:03:34;6.10;;;3.13;;
77495;SDS011;66600;48.378;9.948;2023-06-14T13:06:00;6.32;;;3.20;;
77495;SDS011;66600;48.378;9.948;2023-06-14T13:08:26;8.27;;;3.40;;
77495;SDS011;66600;48.378;9.948;2023-06-14T13:10:53;4.32;;;3.22;;
77495;SDS011;66600;48.378;9.948;2023-06-14T13:13:19;4.45;;;3.10;;
77495;SDS011;66600;48.378;9.948;2023-06-14T13:15:44;5.90;;;3.20;;
77495;SDS011;66600;48.378;9.948;2023-06-14T13:18:11;6.80;;;3.47;;
77495;SDS011;66600;48.378;9.948;2023-06-14T13:20:38;5.75;;;2.90;;
77495;SDS011;66600;48.378;9.948;2023-06-14T13:23:03;4.85;;;3.08;;
77495;SDS011;66600;48.378;9.948;2023-06-14T13:25:30;3.92;;;3.00;;
77495;SDS011;66600;48.378;9.948;2023-06-14T13:27:56;7.32;;;3.22;;
77495;SDS011;66600;48.378;9.948;2023-06-14T13:30:21;4.97;;;3.00;;
77495;SDS011;66600;48.378;9.948;2023-06-14T13:32:47;5.53;;;3.42;;
77495;SDS011;66600;48.378;9.948;2023-06-14T13:35:12;7.78;;;3.90;;
77495;SDS011;66600;48.378;9.948;2023-06-14T13:37:38;5.15;;;3.17;;
77495;SDS011;66600;48.378;9.948;2023-06-14T13:40:03;5.93;;;3.00;;
77495;SDS011;66600;48.378;9.948;2023-06-14T13:42:29;5.80;;;3.17;;
77495;SDS011;66600;48.378;9.948;2023-06-14T13:44:56;5.57;;;3.10;;
77495;SDS011;66600;48.378;9.948;2023-06-14T13:47:22;4.22;;;2.90;;
77495;SDS011;66600;48.378;9.948;2023-06-14T13:49:47;5.38;;;3.08;;
77495;SDS011;66600;48.378;9.948;2023-06-14T13:52:13;5.07;;;3.10;;
77495;SDS011;66600;48.378;9.948;2023-06-14T13:54:38;5.78;;;3.03;;
77495;SDS011;66600;48.378;9.948;2023-06-14T13:57:03;5.72;;;3.20;;
77495;SDS011;66600;48.378;9.948;2023-06-14T13:59:29;5.53;;;3.28;;
77495;SDS011;66600;48.378;9.948;2023-06-14T14:01:54;6.40;;;3.08;;
77495;SDS011;66600;48.378;9.948;2023-06-14T14:04:20;4.05;;;2.88;;
77495;SDS011;66600;48.378;9.948;2023-06-14T14:06:45;3.97;;;2.70;;
77495;SDS011;66600;48.378;9.948;2023-06-14T14:09:11;3.95;;;2.92;;
77495;SDS011;66600;48.378;9.948;2023-06-14T14:11:36;5.63;;;3.10;;
77495;SDS011;66600;48.378;9.948;2023-06-14T14:14:01;5.07;;;2.70;;
77495;SDS011;66600;48.378;9.948;2023-06-14T14:16:27;5.43;;;3.00;;
77495;SDS011;66600;48.378;9.948;2023-06-14T14:18:52;4.90;;;2.65;;
77495;SDS011;66600;48.378;9.948;2023-06-14T14:21:18;9.18;;;3.00;;
77495;SDS011;66600;48.378;9.948;2023-06-14T14:23:44;5.65;;;3.05;;
77495;SDS011;66600;48.378;9.948;2023-06-14T14:26:10;5.63;;;2.92;;
77495;SDS011;66600;48.378;9.948;2023-06-14T14:28:35;4.78;;;2.85;;
77495;SDS011;66600;48.378;9.948;2023-06-14T14:31:01;5.72;;;3.13;;
77495;SDS011;66600;48.378;9.948;2023-06-14T14:33:26;6.30;;;3.05;;
77495;SDS011;66600;48.378;9.948;2023-06-14T14:35:52;5.55;;;3.00;;
77495;SDS011;66600;48.378;9.948;2023-06-14T14:38:17;5.07;;;3.17;;
77495;SDS011;66600;48.378;9.948;2023-06-14T14:40:43;3.97;;;3.28;;
77495;SDS011;66600;48.378;9.948;2023-06-14T14:43:09;5.65;;;3.28;;
77495;SDS011;66600;48.378;9.948;2023-06-14T14:45:34;4.90;;;2.70;;
77495;SDS011;66600;48.378;9.948;2023-06-14T14:48:00;4.47;;;2.80;;
77495;SDS011;66600;48.378;9.948;2023-06-14T14:50:26;4.82;;;3.20;;
77495;SDS011;66600;48.378;9.948;2023-06-14T14:52:51;4.57;;;3.03;;
77495;SDS011;66600;48.378;9.948;2023-06-14T14:55:16;4.65;;;3.40;;
77495;SDS011;66600;48.378;9.948;2023-06-14T14:57:42;4.82;;;3.03;;
77495;SDS011;66600;48.378;9.948;2023-06-14T15:00:08;6.13;;;3.20;;
77495;SDS011;66600;48.378;9.948;2023-06-14T15:02:34;5.30;;;3.17;;
77495;SDS011;66600;48.378;9.948;2023-06-14T15:05:00;5.18;;;2.97;;
77495;SDS011;66600;48.378;9.948;2023-06-14T15:07:30;8.70;;;3.65;;
77495;SDS011;66600;48.378;9.948;2023-06-14T15:09:56;4.85;;;2.92;;
77495;SDS011;66600;48.378;9.948;2023-06-14T15:12:22;6.70;;;3.20;;
77495;SDS011;66600;48.378;9.948;2023-06-14T15:14:51;5.03;;;2.90;;
77495;SDS011;66600;48.378;9.948;2023-06-14T15:17:17;6.65;;;3.00;;